createdAt,value
2022-11-22T00:01:41.138Z,38.90
2022-11-22T00:04:10.182Z,53.15
2022-11-22T00:06:40.290Z,54.50
2022-11-22T00:09:09.041Z,47.78
2022-11-22T00:11:37.787Z,42.85
2022-11-22T00:14:06.587Z,46.38
2022-11-22T00:16:35.297Z,50.65
2022-11-22T00:19:04.021Z,45.65
2022-11-22T00:21:32.762Z,46.13
2022-11-22T00:24:02.921Z,46.92
2022-11-22T00:26:31.564Z,67.05
2022-11-22T00:29:00.225Z,79.88
2022-11-22T00:31:28.946Z,70.97
2022-11-22T00:33:57.785Z,58.75
2022-11-22T00:36:26.845Z,64.78
2022-11-22T00:38:55.608Z,69.65
2022-11-22T00:41:25.652Z,62.22
2022-11-22T00:43:54.361Z,56.13
2022-11-22T00:46:22.992Z,55.88
2022-11-22T00:48:52.498Z,51.13
2022-11-22T00:51:21.337Z,41.20
2022-11-22T00:53:49.985Z,35.85
2022-11-22T00:56:18.740Z,28.35
2022-11-22T00:58:48.987Z,25.27
2022-11-22T01:01:17.824Z,25.65
2022-11-22T01:03:46.490Z,27.83
2022-11-22T01:06:15.256Z,26.42
2022-11-22T01:08:44.078Z,27.15
2022-11-22T01:11:13.278Z,30.77
2022-11-22T01:13:42.038Z,31.67
2022-11-22T01:16:13.786Z,24.90
2022-11-22T01:18:42.741Z,32.15
2022-11-22T01:21:11.491Z,29.60
2022-11-22T01:23:40.684Z,26.52
2022-11-22T01:26:10.211Z,35.92
2022-11-22T01:28:39.166Z,26.65
2022-11-22T01:31:07.856Z,29.40
2022-11-22T01:33:38.047Z,29.52
2022-11-22T01:36:07.114Z,27.42
2022-11-22T01:38:35.735Z,24.13
2022-11-22T01:41:04.327Z,25.45
2022-11-22T01:43:32.991Z,23.00
2022-11-22T01:46:03.713Z,27.75
2022-11-22T01:48:44.585Z,27.38
2022-11-22T01:51:19.344Z,29.02
2022-11-22T01:53:48.972Z,47.28
2022-11-22T01:56:21.030Z,29.77
2022-11-22T01:58:55.248Z,36.10
2022-11-22T02:01:24.154Z,36.83
2022-11-22T02:03:56.345Z,25.67
2022-11-22T02:06:27.036Z,26.80
2022-11-22T02:09:02.058Z,24.40
2022-11-22T02:11:34.134Z,27.50
2022-11-22T02:14:04.853Z,26.42
2022-11-22T02:16:35.810Z,31.45
2022-11-22T02:19:06.941Z,26.08
2022-11-22T02:21:35.668Z,28.05
2022-11-22T02:24:12.010Z,24.27
2022-11-22T02:26:42.513Z,25.40
2022-11-22T02:29:11.320Z,27.10
2022-11-22T02:31:43.602Z,27.25
2022-11-22T02:34:12.669Z,24.88
2022-11-22T02:36:44.630Z,27.67
2022-11-22T02:39:15.915Z,23.25
2022-11-22T02:41:47.091Z,24.92
2022-11-22T02:44:16.177Z,23.75
2022-11-22T02:46:49.592Z,24.42
2022-11-22T02:49:20.045Z,25.90
2022-11-22T02:51:49.209Z,24.35
2022-11-22T02:54:17.885Z,26.38
2022-11-22T02:56:48.207Z,26.98
2022-11-22T02:59:16.955Z,23.70
2022-11-22T03:01:48.036Z,25.48
2022-11-22T03:04:25.196Z,26.88
2022-11-22T03:06:55.985Z,30.02
2022-11-22T03:09:25.267Z,24.77
2022-11-22T03:11:56.025Z,23.48
2022-11-22T03:14:24.970Z,25.60
2022-11-22T03:16:53.929Z,24.07
2022-11-22T03:19:22.707Z,26.70
2022-11-22T03:21:52.381Z,24.52
2022-11-22T03:24:21.308Z,26.15
2022-11-22T03:26:50.903Z,25.67
2022-11-22T03:29:21.016Z,22.42
2022-11-22T03:31:49.687Z,23.10
2022-11-22T03:34:18.389Z,26.88
2022-11-22T03:36:47.064Z,25.27
2022-11-22T03:39:15.786Z,25.55
2022-11-22T03:41:45.831Z,24.90
2022-11-22T03:44:14.506Z,25.05
2022-11-22T03:46:44.610Z,23.98
2022-11-22T03:49:13.378Z,26.73
2022-11-22T03:51:42.059Z,26.63
2022-11-22T03:54:10.756Z,27.17
2022-11-22T03:56:39.415Z,25.25
2022-11-22T03:59:08.003Z,24.38
2022-11-22T04:01:36.729Z,25.65
2022-11-22T04:04:07.090Z,25.35
2022-11-22T04:06:35.803Z,24.05
2022-11-22T04:09:04.648Z,28.50
2022-11-22T04:11:33.273Z,24.50
2022-11-22T04:14:19.088Z,24.48
2022-11-22T04:16:47.886Z,27.17
2022-11-22T04:19:17.919Z,22.63
2022-11-22T04:21:45.563Z,27.38
2022-11-22T04:24:31.419Z,25.38
2022-11-22T04:27:00.096Z,25.40
2022-11-22T04:29:29.206Z,26.83
2022-11-22T04:32:24.133Z,26.58
2022-11-22T04:34:54.150Z,24.38
2022-11-22T04:37:22.910Z,23.20
2022-11-22T04:39:51.535Z,36.10
2022-11-22T04:42:37.668Z,32.80
2022-11-22T04:45:07.481Z,28.52
2022-11-22T04:50:40.697Z,29.30
2022-11-22T04:53:09.499Z,29.38
2022-11-22T04:55:38.111Z,26.60
2022-11-22T04:58:06.739Z,28.67
2022-11-22T05:00:35.720Z,25.10
2022-11-22T05:03:05.425Z,24.52
2022-11-22T05:05:38.847Z,24.52
2022-11-22T05:08:08.533Z,29.60
2022-11-22T05:13:20.335Z,26.67
2022-11-22T05:15:49.402Z,29.75
2022-11-22T05:18:18.302Z,28.35
2022-11-22T05:20:48.707Z,26.30
2022-11-22T05:23:35.166Z,24.92
2022-11-22T05:26:04.192Z,24.92
2022-11-22T05:28:33.990Z,27.70
2022-11-22T05:33:37.637Z,26.17
2022-11-22T05:36:09.276Z,27.77
2022-11-22T05:38:38.977Z,28.75
2022-11-22T05:41:08.978Z,28.77
2022-11-22T05:43:37.860Z,32.22
2022-11-22T05:46:08.604Z,28.37
2022-11-22T05:48:38.419Z,27.58
2022-11-22T05:51:09.731Z,29.55
2022-11-22T05:53:39.327Z,27.45
2022-11-22T05:56:08.616Z,27.38
2022-11-22T05:58:37.782Z,28.33
2022-11-22T06:01:07.858Z,25.88
2022-11-22T06:03:37.283Z,28.02
2022-11-22T06:06:07.241Z,26.92
2022-11-22T06:08:38.691Z,29.15
2022-11-22T06:11:08.139Z,30.50
2022-11-22T06:13:37.693Z,29.48
2022-11-22T06:16:08.065Z,42.60
2022-11-22T06:18:36.947Z,35.65
2022-11-22T06:21:07.367Z,33.20
2022-11-22T06:23:37.563Z,36.85
2022-11-22T06:26:08.434Z,34.38
2022-11-22T06:28:38.739Z,34.05
2022-11-22T06:31:09.543Z,36.05
2022-11-22T06:33:38.516Z,32.65
2022-11-22T06:36:08.972Z,26.97
2022-11-22T06:38:39.876Z,30.50
2022-11-22T06:41:10.566Z,27.60
2022-11-22T06:43:46.718Z,30.58
2022-11-22T06:46:17.843Z,38.80
2022-11-22T06:48:46.610Z,28.45
2022-11-22T06:51:17.192Z,32.33
2022-11-22T06:53:48.978Z,32.60
2022-11-22T06:56:20.188Z,29.88
2022-11-22T06:58:50.253Z,36.78
2022-11-22T07:01:20.397Z,40.95
2022-11-22T07:03:49.805Z,35.58
2022-11-22T07:06:19.682Z,32.63
2022-11-22T07:08:49.883Z,36.88
2022-11-22T07:11:20.239Z,34.45
2022-11-22T07:13:49.665Z,36.80
2022-11-22T07:16:19.670Z,31.60
2022-11-22T07:18:48.869Z,33.00
2022-11-22T07:21:19.153Z,30.67
2022-11-22T07:23:51.030Z,34.90
2022-11-22T07:26:21.207Z,33.03
2022-11-22T07:28:50.539Z,30.15
2022-11-22T07:31:19.489Z,28.48
2022-11-22T07:33:48.697Z,26.80
2022-11-22T07:36:19.236Z,28.63
2022-11-22T07:38:49.624Z,30.67
2022-11-22T07:41:19.190Z,29.13
2022-11-22T07:43:48.140Z,33.72
2022-11-22T07:46:22.977Z,35.07
2022-11-22T07:48:51.688Z,31.50
2022-11-22T07:51:21.626Z,35.97
2022-11-22T07:53:51.961Z,30.67
2022-11-22T07:56:20.785Z,32.45
2022-11-22T07:58:49.439Z,30.50
2022-11-22T08:01:19.697Z,29.15
2022-11-22T08:03:48.682Z,30.25
2022-11-22T08:06:17.760Z,28.87
2022-11-22T08:08:46.507Z,28.00
2022-11-22T08:11:16.472Z,28.88
2022-11-22T08:13:45.254Z,34.63
2022-11-22T08:16:15.878Z,42.25
2022-11-22T08:18:48.247Z,45.13
2022-11-22T08:21:18.015Z,37.88
2022-11-22T08:26:19.073Z,45.63
2022-11-22T08:28:47.842Z,45.70
2022-11-22T08:31:19.176Z,44.90
2022-11-22T08:33:48.288Z,46.03
2022-11-22T08:36:17.156Z,44.22
2022-11-22T08:38:45.882Z,48.63
2022-11-22T08:41:14.791Z,56.75
2022-11-22T08:43:44.858Z,51.20
2022-11-22T08:46:13.470Z,45.17
2022-11-22T08:48:42.391Z,43.47
2022-11-22T08:51:12.813Z,37.03
2022-11-22T08:53:43.781Z,43.00
2022-11-22T08:56:14.966Z,40.55
2022-11-22T08:58:45.122Z,48.20
2022-11-22T09:01:16.862Z,50.50
2022-11-22T09:03:46.366Z,55.25
2022-11-22T09:09:43.168Z,45.38
2022-11-22T09:11:55.051Z,43.50
2022-11-22T09:14:25.075Z,41.63
2022-11-22T09:16:53.730Z,41.78
2022-11-22T09:19:22.424Z,42.28
2022-11-22T09:21:51.335Z,43.47
2022-11-22T09:24:20.659Z,39.38
2022-11-22T09:26:49.317Z,35.45
2022-11-22T09:29:18.003Z,42.05
2022-11-22T09:31:48.050Z,34.92
2022-11-22T09:34:16.755Z,35.90
2022-11-22T09:36:45.460Z,37.83
2022-11-22T09:39:14.254Z,33.67
2022-11-22T09:42:15.198Z,43.03
2022-11-22T09:45:03.870Z,40.80
2022-11-22T09:47:40.200Z,38.97
2022-11-22T09:50:20.073Z,41.67
2022-11-22T09:52:55.097Z,36.97
2022-11-22T09:55:28.358Z,45.83
2022-11-22T09:58:05.797Z,49.10
2022-11-22T10:00:36.145Z,39.55
2022-11-22T10:03:12.509Z,37.90
2022-11-22T10:05:52.170Z,39.95
2022-11-22T10:08:40.180Z,38.38
2022-11-22T10:11:15.601Z,37.90
2022-11-22T10:13:51.160Z,34.25
2022-11-22T10:16:24.779Z,34.85
2022-11-22T10:18:59.044Z,34.80
2022-11-22T10:21:28.012Z,34.35
2022-11-22T10:23:56.645Z,36.07
2022-11-22T10:26:28.466Z,41.50
2022-11-22T10:29:17.271Z,36.58
2022-11-22T10:31:54.646Z,35.40
2022-11-22T10:34:29.484Z,35.92
2022-11-22T10:37:06.641Z,40.22
2022-11-22T10:40:01.155Z,33.20
2022-11-22T10:43:02.843Z,32.08
2022-11-22T10:45:35.473Z,30.92
2022-11-22T10:48:18.217Z,30.58
2022-11-22T10:50:58.490Z,28.45
2022-11-22T10:53:44.547Z,27.77
2022-11-22T10:56:20.817Z,31.83
2022-11-22T10:59:02.406Z,32.42
2022-11-22T11:01:40.473Z,37.33
2022-11-22T11:04:12.278Z,30.30
2022-11-22T11:12:46.482Z,29.98
2022-11-22T11:15:20.737Z,36.10
2022-11-22T11:17:54.900Z,42.42
2022-11-22T11:20:27.469Z,42.88
2022-11-22T11:23:15.223Z,39.83
2022-11-22T11:25:46.593Z,37.75
2022-11-22T11:28:20.390Z,43.28
2022-11-22T11:30:52.209Z,33.40
2022-11-22T11:33:26.719Z,36.45
2022-11-22T11:35:58.470Z,32.58
2022-11-22T11:38:37.428Z,40.22
2022-11-22T11:41:24.155Z,33.80
2022-11-22T11:43:54.459Z,26.45
2022-11-22T11:46:24.621Z,26.38
2022-11-22T11:48:55.157Z,25.52
2022-11-22T11:51:36.899Z,23.40
2022-11-22T11:54:11.261Z,28.48
2022-11-22T11:56:49.185Z,26.10
2022-11-22T11:59:20.228Z,29.70
2022-11-22T12:01:55.699Z,27.35
2022-11-22T12:04:28.650Z,27.13
2022-11-22T12:07:03.486Z,25.27
2022-11-22T12:09:38.676Z,28.42
2022-11-22T12:12:16.495Z,28.92
2022-11-22T12:15:10.346Z,30.23
2022-11-22T12:17:45.384Z,24.90
2022-11-22T12:20:19.586Z,25.75
2022-11-22T12:22:55.352Z,26.67
2022-11-22T12:25:33.213Z,22.88
2022-11-22T12:28:19.375Z,23.00
2022-11-22T12:30:52.933Z,27.70
2022-11-22T12:33:26.209Z,24.20
2022-11-22T12:35:56.791Z,24.05
2022-11-22T12:38:29.279Z,24.38
2022-11-22T12:41:03.572Z,23.45
2022-11-22T12:43:38.085Z,19.13
2022-11-22T12:46:12.165Z,21.00
2022-11-22T12:48:48.874Z,26.48
2022-11-22T12:51:24.792Z,31.38
2022-11-22T12:53:57.027Z,30.35
2022-11-22T12:56:33.594Z,31.58
2022-11-22T12:59:07.942Z,30.65
2022-11-22T13:01:45.390Z,29.65
2022-11-22T13:04:21.207Z,29.83
2022-11-22T13:06:57.996Z,27.55
2022-11-22T13:09:33.556Z,26.45
2022-11-22T13:12:07.383Z,27.52
2022-11-22T13:14:40.055Z,33.00
2022-11-22T13:17:09.918Z,48.00
2022-11-22T13:22:17.715Z,27.55
2022-11-22T13:25:02.843Z,22.58
2022-11-22T13:27:36.116Z,25.65
2022-11-22T13:30:05.996Z,67.53
2022-11-22T13:35:20.272Z,26.90
2022-11-22T13:37:51.522Z,24.02
2022-11-22T13:40:27.412Z,25.52
2022-11-22T13:43:50.169Z,23.33
2022-11-22T13:46:53.412Z,19.45
2022-11-22T13:49:38.332Z,27.95
2022-11-22T13:52:30.372Z,24.65
2022-11-22T13:55:19.412Z,31.83
2022-11-22T13:57:48.115Z,26.33
2022-11-22T14:00:51.196Z,30.80
2022-11-22T14:03:36.376Z,28.42
2022-11-22T14:06:24.941Z,37.83
2022-11-22T14:09:18.800Z,36.10
2022-11-22T14:12:01.252Z,41.78
2022-11-22T14:14:38.157Z,36.22
2022-11-22T14:17:19.369Z,41.47
2022-11-22T14:20:01.434Z,39.33
2022-11-22T14:22:46.587Z,50.90
2022-11-22T14:25:35.175Z,29.35
2022-11-22T14:28:13.217Z,29.83
2022-11-22T14:30:47.569Z,20.75
2022-11-22T14:33:20.185Z,16.73
2022-11-22T14:36:17.682Z,24.75
2022-11-22T14:38:46.737Z,30.90
2022-11-22T14:41:43.888Z,22.33
2022-11-22T14:44:17.241Z,18.42
2022-11-22T14:46:53.813Z,24.08
2022-11-22T14:49:30.902Z,19.60
2022-11-22T14:52:00.920Z,24.83
2022-11-22T14:57:04.435Z,16.30
2022-11-22T14:59:59.447Z,15.57
2022-11-22T15:02:58.520Z,18.52
2022-11-22T15:09:14.766Z,13.57
2022-11-22T15:09:23.402Z,16.40
2022-11-22T15:12:18.669Z,16.45
2022-11-22T15:59:11.916Z,20.77
2022-11-22T16:01:44.029Z,22.58
2022-11-22T16:04:22.931Z,25.48
2022-11-22T16:06:53.651Z,29.43
2022-11-22T16:09:29.383Z,24.67
2022-11-22T16:12:02.842Z,25.27
2022-11-22T16:14:49.929Z,22.33
2022-11-22T16:17:27.600Z,21.08
2022-11-22T16:20:29.703Z,18.05
2022-11-22T16:23:20.052Z,12.60
2022-11-22T16:25:51.073Z,11.38
2022-11-22T16:28:32.846Z,21.95
2022-11-22T16:31:04.640Z,16.33
2022-11-22T16:33:33.554Z,12.73
2022-11-22T16:36:03.433Z,22.93
2022-11-22T16:38:32.083Z,22.48
2022-11-22T16:41:00.846Z,22.90
2022-11-22T16:43:36.182Z,16.67
2022-11-22T16:46:05.201Z,23.50
2022-11-22T16:48:34.041Z,22.30
2022-11-22T16:51:06.287Z,27.03
2022-11-22T16:53:44.534Z,22.60
2022-11-22T16:56:21.009Z,17.55
2022-11-22T16:58:52.284Z,21.25
2022-11-22T17:01:24.158Z,17.70
2022-11-22T17:03:54.823Z,15.32
2022-11-22T17:06:25.048Z,13.20
2022-11-22T17:08:55.773Z,14.35
2022-11-22T17:11:26.186Z,11.18
2022-11-22T17:13:56.645Z,9.02
2022-11-22T17:16:25.311Z,10.85
2022-11-22T17:18:56.018Z,12.60
2022-11-22T17:21:30.348Z,14.63
2022-11-22T17:24:04.774Z,12.60
2022-11-22T17:26:34.867Z,12.40
2022-11-22T17:29:06.636Z,11.95
2022-11-22T17:31:37.897Z,11.88
2022-11-22T17:34:06.526Z,11.32
2022-11-22T17:36:36.781Z,14.05
2022-11-22T17:39:07.164Z,13.18
2022-11-22T17:41:36.150Z,14.20
2022-11-22T17:44:07.260Z,17.20
2022-11-22T17:46:38.469Z,18.33
2022-11-22T17:49:11.218Z,19.13
2022-11-22T17:51:42.831Z,24.38
2022-11-22T17:54:11.555Z,15.77
2022-11-22T17:56:40.490Z,16.80
2022-11-22T17:59:10.563Z,14.40
2022-11-22T18:01:39.302Z,14.43
2022-11-22T18:04:07.919Z,14.65
2022-11-22T18:06:36.572Z,12.23
2022-11-22T18:09:05.608Z,13.13
2022-11-22T18:11:34.345Z,14.75
2022-11-22T18:14:03.015Z,14.38
2022-11-22T18:16:33.080Z,11.73
2022-11-22T18:19:01.990Z,12.52
2022-11-22T18:21:33.499Z,11.30
2022-11-22T18:24:02.862Z,13.35
2022-11-22T18:26:39.774Z,16.65
2022-11-22T18:29:41.297Z,16.90
2022-11-22T18:32:00.846Z,16.20
2022-11-22T18:34:30.480Z,16.38
2022-11-22T18:37:02.449Z,15.80
2022-11-22T18:39:32.804Z,21.90
2022-11-22T18:42:01.851Z,21.98
2022-11-22T18:44:30.446Z,22.77
2022-11-22T18:47:00.529Z,20.08
2022-11-22T18:49:29.809Z,20.08
2022-11-22T18:54:27.495Z,23.27
2022-11-22T18:56:56.210Z,23.00
2022-11-22T18:59:25.021Z,20.88
2022-11-22T19:01:53.817Z,17.93
2022-11-22T19:04:23.788Z,16.30
2022-11-22T19:06:52.645Z,12.52
2022-11-22T19:09:22.307Z,12.95
2022-11-22T19:11:55.554Z,15.30
2022-11-22T19:14:29.209Z,9.80
2022-11-22T19:16:58.198Z,10.82
2022-11-22T19:19:32.236Z,10.75
2022-11-22T19:22:01.404Z,13.77
2022-11-22T19:24:30.605Z,12.02
2022-11-22T19:26:59.404Z,10.90
2022-11-22T19:29:28.143Z,11.63
2022-11-22T19:31:57.045Z,13.50
2022-11-22T19:34:25.798Z,13.05
2022-11-22T19:36:55.993Z,16.17
2022-11-22T19:39:25.833Z,16.45
2022-11-22T19:44:23.017Z,12.25
2022-11-22T19:46:51.632Z,13.95
2022-11-22T19:49:20.247Z,11.40
2022-11-22T19:51:49.250Z,15.02
2022-11-22T19:54:19.164Z,13.43
2022-11-22T19:56:48.039Z,13.45
2022-11-22T19:59:17.564Z,12.83
2022-11-22T20:01:46.232Z,13.43
2022-11-22T20:04:15.471Z,16.50
2022-11-22T20:06:49.717Z,13.45
2022-11-22T20:09:20.403Z,14.00
2022-11-22T20:11:49.192Z,17.67
2022-11-22T20:14:17.733Z,17.80
2022-11-22T20:16:46.422Z,21.27
2022-11-22T20:19:15.795Z,18.95
2022-11-22T20:21:44.981Z,16.33
2022-11-22T20:24:14.499Z,16.35
2022-11-22T20:26:44.705Z,17.58
2022-11-22T20:29:15.371Z,13.38
2022-11-22T20:31:44.194Z,14.77
2022-11-22T20:34:14.003Z,19.85
2022-11-22T20:39:11.735Z,11.20
2022-11-22T20:41:41.120Z,11.77
2022-11-22T20:44:14.379Z,11.20
2022-11-22T20:46:43.603Z,11.02
2022-11-22T20:49:13.724Z,13.43
2022-11-22T20:51:44.797Z,12.75
2022-11-22T20:54:14.419Z,13.10
2022-11-22T20:56:43.106Z,11.00
2022-11-22T20:59:13.489Z,14.18
2022-11-22T21:01:43.812Z,13.50
2022-11-22T21:04:12.415Z,11.95
2022-11-22T21:06:41.178Z,11.93
2022-11-22T21:09:11.717Z,11.80
2022-11-22T21:11:41.395Z,11.10
2022-11-22T21:14:10.608Z,11.65
2022-11-22T21:16:42.011Z,11.57
2022-11-22T21:19:11.072Z,12.20
2022-11-22T21:21:39.962Z,10.73
2022-11-22T21:24:12.199Z,13.80
2022-11-22T21:26:40.937Z,10.73
2022-11-22T21:29:16.462Z,12.18
2022-11-22T21:31:47.079Z,13.15
2022-11-22T21:34:16.520Z,10.55
2022-11-22T21:36:45.436Z,11.82
2022-11-22T21:39:15.135Z,9.67
2022-11-22T21:44:12.678Z,10.18
2022-11-22T21:46:41.501Z,9.23
2022-11-22T21:49:12.585Z,10.70
2022-11-22T21:51:41.322Z,10.90
2022-11-22T21:54:10.206Z,11.23
2022-11-22T21:56:38.865Z,10.93
2022-11-22T21:59:07.806Z,10.88
2022-11-22T22:01:36.613Z,10.93
2022-11-22T22:04:05.666Z,10.75
2022-11-22T22:06:35.834Z,9.73
2022-11-22T22:09:04.918Z,10.32
2022-11-22T22:11:33.723Z,8.63
2022-11-22T22:14:02.437Z,12.05
2022-11-22T22:16:31.065Z,9.30
2022-11-22T22:19:01.876Z,10.38
2022-11-22T22:21:32.218Z,9.50
2022-11-22T22:24:03.851Z,10.80
2022-11-22T22:26:33.063Z,9.75
2022-11-22T22:29:02.055Z,8.93
2022-11-22T22:31:30.896Z,11.07
2022-11-22T22:33:59.809Z,9.48
2022-11-22T22:36:29.044Z,9.73
2022-11-22T22:38:57.921Z,9.95
2022-11-22T22:41:28.255Z,8.73
2022-11-22T22:43:56.943Z,9.23
2022-11-22T22:46:26.092Z,9.80
2022-11-22T22:48:56.329Z,21.42
2022-11-22T22:51:32.343Z,22.17
2022-11-22T22:54:02.405Z,15.00
2022-11-22T22:56:33.183Z,12.50
2022-11-22T22:59:02.290Z,17.02
2022-11-22T23:01:32.579Z,14.80
2022-11-22T23:04:02.885Z,14.65
2022-11-22T23:06:34.043Z,11.88
2022-11-22T23:09:04.373Z,10.70
2022-11-22T23:11:54.048Z,10.85
2022-11-22T23:14:25.428Z,11.20
2022-11-22T23:16:57.585Z,10.77
2022-11-22T23:19:27.958Z,11.63
2022-11-22T23:21:56.707Z,10.98
2022-11-22T23:24:25.318Z,9.23
2022-11-22T23:26:55.479Z,11.63
2022-11-22T23:29:24.154Z,10.75
2022-11-22T23:31:55.073Z,13.45
2022-11-22T23:34:24.012Z,12.57
2022-11-22T23:36:52.936Z,12.35
2022-11-22T23:39:21.616Z,13.40
2022-11-22T23:41:50.274Z,13.45
2022-11-22T23:44:20.432Z,11.98
2022-11-22T23:46:51.221Z,12.60
2022-11-22T23:49:19.834Z,12.27
2022-11-22T23:51:50.456Z,13.18
2022-11-22T23:54:19.303Z,11.38
2022-11-22T23:56:48.092Z,11.77
2022-11-22T23:59:17.855Z,11.20
